Time;durP1;ratioP1;P1;durP2;ratioP2;P2;SDS_P1;SDS_P2;PMS_P1;PMS_P2;Temp;Humidity;BMP_temperature;BMP_pressure;BME280_temperature;BME280_humidity;BME280_pressure;Samples;Min_cycle;Max_cycle;Signal;HPM_P1;HPM_P2
2023/10/09 00:00:30;;;;;;;13.18;7.60;;;23.80;42.80;;;;;;347840;28;1558;-56
2023/10/09 00:00:50;;;;;;;11.90;7.40;;;23.80;42.90;;;;;;348081;28;1040;-56
2023/10/09 00:01:12;;;;;;;15.77;8.25;;;23.80;43.00;;;;;;348162;28;1338;-56
2023/10/09 00:01:23;;;;;;;16.65;8.48;;;23.80;43.20;;;;;;348217;28;1828;-57
2023/10/09 00:01:34;;;;;;;15.68;8.68;;;23.80;43.20;;;;;;348248;28;1058;-57
2023/10/09 00:01:46;;;;;;;16.52;9.18;;;23.70;43.30;;;;;;348287;28;785;-56
2023/10/09 00:01:58;;;;;;;15.70;9.20;;;23.70;43.30;;;;;;348295;28;892;-57
2023/10/09 00:02:10;;;;;;;14.02;8.50;;;23.70;43.30;;;;;;348204;28;1038;-57
2023/10/09 00:02:21;;;;;;;14.20;7.82;;;23.70;43.40;;;;;;348263;28;988;-56
2023/10/09 00:02:32;;;;;;;12.90;7.40;;;23.70;43.40;;;;;;348231;28;987;-57
2023/10/09 00:02:43;;;;;;;13.00;7.80;;;23.80;43.40;;;;;;348164;28;1118;-56
2023/10/09 00:02:54;;;;;;;12.90;8.00;;;23.70;43.50;;;;;;348319;28;738;-57
2023/10/09 00:03:06;;;;;;;14.38;7.95;;;23.70;43.50;;;;;;348307;28;987;-57
2023/10/09 00:03:23;;;;;;;13.10;7.43;;;23.70;43.50;;;;;;348276;28;995;-56
2023/10/09 00:03:36;;;;;;;12.13;7.72;;;23.70;43.50;;;;;;348125;28;1319;-56
2023/10/09 00:03:53;;;;;;;12.90;8.02;;;23.70;43.50;;;;;;348286;28;1035;-56
2023/10/09 00:04:04;;;;;;;12.52;7.80;;;23.70;43.50;;;;;;348279;28;829;-56
2023/10/09 00:04:15;;;;;;;12.55;8.35;;;23.70;43.50;;;;;;348295;28;1963;-57
2023/10/09 00:04:26;;;;;;;12.48;8.23;;;23.70;43.60;;;;;;348203;28;1027;-56
2023/10/09 00:04:41;;;;;;;12.50;8.17;;;23.80;43.60;;;;;;348281;28;1078;-57
2023/10/09 00:04:52;;;;;;;13.25;8.23;;;23.70;43.60;;;;;;348290;28;1036;-55
2023/10/09 00:05:12;;;;;;;14.13;8.80;;;23.70;43.60;;;;;;348254;28;1027;-57
2023/10/09 00:05:28;;;;;;;15.13;9.77;;;23.70;43.60;;;;;;348133;28;928;-56
2023/10/09 00:05:55;;;;;;;19.27;12.63;;;23.70;43.70;;;;;;348271;28;932;-57
2023/10/09 00:06:07;;;;;;;19.58;13.18;;;23.70;43.70;;;;;;348334;28;1004;-56
2023/10/09 00:06:23;;;;;;;20.90;14.27;;;23.70;43.70;;;;;;348167;28;1135;-56
2023/10/09 00:06:37;;;;;;;24.20;16.77;;;23.70;43.70;;;;;;348183;28;1221;-57
2023/10/09 00:06:48;;;;;;;21.77;15.85;;;23.70;43.60;;;;;;348285;28;980;-57
2023/10/09 00:06:59;;;;;;;19.73;13.88;;;23.70;43.70;;;;;;348313;28;1012;-56
2023/10/09 00:07:11;;;;;;;19.80;13.45;;;23.70;43.70;;;;;;348218;28;955;-56
2023/10/09 00:07:23;;;;;;;20.42;12.90;;;23.70;43.70;;;;;;348292;28;1051;-57
2023/10/09 00:07:34;;;;;;;19.63;11.73;;;23.70;43.70;;;;;;348265;28;899;-57
2023/10/09 00:07:45;;;;;;;17.80;11.00;;;23.70;43.70;;;;;;348270;28;972;-56
2023/10/09 00:07:57;;;;;;;17.13;10.25;;;23.70;43.80;;;;;;348211;28;1086;-57
2023/10/09 00:08:09;;;;;;;14.80;9.38;;;23.70;43.80;;;;;;348122;28;1090;-57
2023/10/09 00:08:32;;;;;;;14.80;8.52;;;23.70;43.80;;;;;;348253;28;1085;-58
2023/10/09 00:08:44;;;;;;;16.98;8.23;;;23.70;43.80;;;;;;348237;28;1134;-56
2023/10/09 00:08:58;;;;;;;17.25;8.60;;;23.70;43.80;;;;;;348198;28;1073;-56
2023/10/09 00:09:48;;;;;;;15.55;8.68;;;23.70;43.80;;;;;;348269;28;1059;-57
2023/10/09 00:09:59;;;;;;;13.23;9.05;;;23.70;43.80;;;;;;348316;28;717;-57
2023/10/09 00:10:12;;;;;;;13.98;9.02;;;23.70;43.70;;;;;;348231;28;976;-57
2023/10/09 00:10:34;;;;;;;15.80;9.05;;;23.70;43.70;;;;;;348257;28;1041;-57
2023/10/09 00:10:48;;;;;;;16.48;9.35;;;23.70;43.60;;;;;;348284;28;1075;-56
2023/10/09 00:11:13;;;;;;;16.65;9.48;;;23.70;43.60;;;;;;348248;28;1819;-56
2023/10/09 00:11:29;;;;;;;16.92;9.65;;;23.70;43.70;;;;;;348165;28;1001;-56
2023/10/09 00:11:44;;;;;;;14.88;9.43;;;23.70;43.80;;;;;;348169;28;1649;-57
2023/10/09 00:11:59;;;;;;;15.23;9.63;;;23.70;43.70;;;;;;348284;28;1048;-57
2023/10/09 00:12:10;;;;;;;16.42;9.32;;;23.70;43.70;;;;;;348180;28;893;-56
2023/10/09 00:12:25;;;;;;;15.33;9.13;;;23.70;43.70;;;;;;348270;28;929;-57
2023/10/09 00:12:36;;;;;;;14.80;9.50;;;23.70;43.70;;;;;;348166;28;1429;-57
2023/10/09 00:12:48;;;;;;;14.52;9.80;;;23.70;43.60;;;;;;348209;28;1179;-57
2023/10/09 00:12:59;;;;;;;16.38;9.95;;;23.70;43.60;;;;;;348153;28;1029;-56
2023/10/09 00:13:10;;;;;;;16.88;10.20;;;23.70;43.60;;;;;;348252;28;1103;-57
2023/10/09 00:13:30;;;;;;;15.80;9.93;;;23.70;43.60;;;;;;348210;28;1086;-56
2023/10/09 00:13:51;;;;;;;15.48;9.43;;;23.70;43.70;;;;;;348199;28;1229;-56
2023/10/09 00:14:05;;;;;;;17.98;9.70;;;23.70;43.70;;;;;;348207;28;1007;-58
2023/10/09 00:14:18;;;;;;;16.90;9.20;;;23.70;43.70;;;;;;348280;28;853;-58
2023/10/09 00:14:34;;;;;;;15.52;9.35;;;23.70;43.80;;;;;;348237;28;1051;-56
2023/10/09 00:14:48;;;;;;;15.27;9.32;;;23.70;43.80;;;;;;348302;28;972;-56
2023/10/09 00:15:09;;;;;;;14.38;8.70;;;23.70;43.80;;;;;;348268;28;1114;-56
2023/10/09 00:15:20;;;;;;;16.92;9.07;;;23.70;43.80;;;;;;348281;28;978;-56
2023/10/09 00:15:33;;;;;;;17.38;9.32;;;23.70;43.90;;;;;;348092;28;1119;-56
2023/10/09 00:15:45;;;;;;;17.48;9.10;;;23.70;43.90;;;;;;348265;28;829;-57
2023/10/09 00:16:13;;;;;;;14.13;8.25;;;23.70;43.90;;;;;;348247;28;1071;-57
2023/10/09 00:16:35;;;;;;;13.98;8.13;;;23.70;43.90;;;;;;348284;28;924;-57
2023/10/09 00:16:49;;;;;;;15.98;8.38;;;23.70;44.00;;;;;;348241;28;1064;-57
2023/10/09 00:17:23;;;;;;;15.45;7.93;;;23.70;44.00;;;;;;348214;28;877;-57
2023/10/09 00:17:34;;;;;;;14.90;8.10;;;23.60;44.10;;;;;;348212;28;1244;-57
2023/10/09 00:17:47;;;;;;;15.90;8.02;;;23.60;44.10;;;;;;348153;28;904;-56
2023/10/09 00:17:58;;;;;;;14.88;8.10;;;23.60;44.10;;;;;;348246;28;1020;-56
2023/10/09 00:18:12;;;;;;;13.35;8.35;;;23.60;44.10;;;;;;348167;28;992;-56
2023/10/09 00:18:29;;;;;;;13.23;8.48;;;23.70;44.10;;;;;;348223;28;1906;-57
2023/10/09 00:18:46;;;;;;;13.80;8.30;;;23.60;44.10;;;;;;348136;28;1342;-57
2023/10/09 00:19:12;;;;;;;17.26;8.82;;;23.60;44.10;;;;;;348106;28;1142;-57
2023/10/09 00:19:33;;;;;;;14.48;9.15;;;23.60;44.10;;;;;;348166;28;1102;-57
2023/10/09 00:19:47;;;;;;;15.48;10.32;;;23.60;44.20;;;;;;348209;28;972;-58
2023/10/09 00:20:00;;;;;;;15.10;9.70;;;23.60;44.20;;;;;;348069;28;1966;-57
2023/10/09 00:20:20;;;;;;;15.63;9.32;;;23.60;44.20;;;;;;348264;28;1122;-57
2023/10/09 00:20:38;;;;;;;17.90;9.25;;;23.60;44.20;;;;;;348216;28;1166;-56
2023/10/09 00:20:54;;;;;;;16.77;8.93;;;23.60;44.20;;;;;;348132;28;1975;-56
2023/10/09 00:21:12;;;;;;;14.85;8.43;;;23.60;44.20;;;;;;348271;28;988;-56
2023/10/09 00:21:25;;;;;;;15.93;8.27;;;23.60;44.30;;;;;;348203;28;1047;-57
2023/10/09 00:21:38;;;;;;;13.88;8.00;;;23.60;44.30;;;;;;348172;28;1849;-56
2023/10/09 00:21:50;;;;;;;13.40;7.95;;;23.60;44.30;;;;;;348220;28;1059;-56
2023/10/09 00:22:04;;;;;;;12.57;7.95;;;23.60;44.30;;;;;;348176;28;1683;-56
2023/10/09 00:22:41;;;;;;;11.60;7.65;;;23.60;44.40;;;;;;348220;28;1078;-56
2023/10/09 00:22:52;;;;;;;12.05;7.60;;;23.60;44.40;;;;;;348252;28;1118;-57
2023/10/09 00:23:06;;;;;;;12.90;7.17;;;23.60;44.50;;;;;;348191;28;1274;-57
2023/10/09 00:23:19;;;;;;;13.65;7.35;;;23.60;44.50;;;;;;348266;28;1094;-56
2023/10/09 00:23:33;;;;;;;13.48;7.55;;;23.60;44.60;;;;;;348288;28;796;-57
2023/10/09 00:23:44;;;;;;;12.40;7.53;;;23.60;44.60;;;;;;348259;28;976;-57
2023/10/09 00:23:59;;;;;;;13.23;8.05;;;23.60;44.60;;;;;;348139;28;1153;-56
2023/10/09 00:24:24;;;;;;;14.13;8.25;;;23.60;44.60;;;;;;348210;28;1043;-58
2023/10/09 00:24:35;;;;;;;14.62;9.48;;;23.60;44.70;;;;;;348146;28;918;-57
2023/10/09 00:24:49;;;;;;;13.65;9.25;;;23.60;44.70;;;;;;348266;28;1079;-57
2023/10/09 00:25:10;;;;;;;13.15;8.48;;;23.60;44.70;;;;;;348239;28;1167;-57
2023/10/09 00:25:29;;;;;;;13.40;8.38;;;23.50;44.70;;;;;;348136;28;1114;-57
2023/10/09 00:25:50;;;;;;;15.77;9.02;;;23.60;44.70;;;;;;348283;28;892;-57
2023/10/09 00:26:16;;;;;;;15.00;9.32;;;23.60;44.80;;;;;;348142;28;986;-56
2023/10/09 00:26:29;;;;;;;13.85;9.00;;;23.60;44.70;;;;;;348214;28;1043;-56
2023/10/09 00:26:44;;;;;;;15.55;9.55;;;23.60;44.70;;;;;;348287;28;1004;-56
2023/10/09 00:26:56;;;;;;;16.67;9.40;;;23.60;44.70;;;;;;348224;28;1000;-56
2023/10/09 00:27:16;;;;;;;18.05;9.23;;;23.50;44.70;;;;;;348256;28;1035;-57
2023/10/09 00:27:27;;;;;;;18.90;8.90;;;23.60;44.70;;;;;;348222;28;904;-56
2023/10/09 00:27:45;;;;;;;16.63;8.80;;;23.60;44.70;;;;;;348183;28;1020;-56
2023/10/09 00:27:59;;;;;;;16.25;8.98;;;23.60;44.70;;;;;;348229;28;1047;-56
2023/10/09 00:28:10;;;;;;;17.98;9.00;;;23.60;44.70;;;;;;348240;28;988;-56
2023/10/09 00:28:23;;;;;;;17.40;9.30;;;23.60;44.70;;;;;;348247;28;960;-58
2023/10/09 00:28:38;;;;;;;16.95;9.88;;;23.60;44.60;;;;;;348185;28;1036;-56
2023/10/09 00:28:50;;;;;;;16.10;10.30;;;23.60;44.70;;;;;;348253;28;991;-56
2023/10/09 00:29:05;;;;;;;16.42;10.20;;;23.60;44.70;;;;;;348250;28;979;-56
2023/10/09 00:29:22;;;;;;;17.58;10.20;;;23.60;44.60;;;;;;348260;28;1929;-56
2023/10/09 00:29:35;;;;;;;15.25;9.80;;;23.60;44.60;;;;;;348193;28;872;-56
2023/10/09 00:29:47;;;;;;;15.38;9.75;;;23.60;44.60;;;;;;348250;28;992;-56
2023/10/09 00:29:59;;;;;;;19.23;10.23;;;23.60;44.60;;;;;;348272;28;916;-56
2023/10/09 00:30:15;;;;;;;19.13;10.20;;;23.60;44.50;;;;;;348290;28;1098;-56
2023/10/09 00:30:29;;;;;;;17.00;9.95;;;23.60;44.60;;;;;;348237;28;1032;-57
2023/10/09 00:30:43;;;;;;;16.45;10.32;;;23.60;44.60;;;;;;348219;28;1056;-56
2023/10/09 00:30:54;;;;;;;18.02;10.57;;;23.60;44.60;;;;;;348238;28;1270;-57
2023/10/09 00:31:07;;;;;;;18.45;10.07;;;23.60;44.60;;;;;;348222;28;988;-57
2023/10/09 00:31:33;;;;;;;15.70;9.32;;;23.60;44.60;;;;;;348163;28;1091;-56
2023/10/09 00:31:50;;;;;;;15.85;9.25;;;23.60;44.60;;;;;;348265;28;1011;-57
2023/10/09 00:32:13;;;;;;;15.18;9.77;;;23.60;44.70;;;;;;348153;28;1059;-55
2023/10/09 00:32:26;;;;;;;16.42;10.82;;;23.60;44.70;;;;;;348176;28;915;-56
2023/10/09 00:32:42;;;;;;;17.33;10.93;;;23.60;44.70;;;;;;348276;28;1055;-56
2023/10/09 00:33:07;;;;;;;17.50;10.95;;;23.60;44.70;;;;;;348214;28;1043;-56
2023/10/09 00:33:22;;;;;;;17.02;10.60;;;23.60;44.60;;;;;;347953;28;1222;-56
2023/10/09 00:33:34;;;;;;;16.85;10.45;;;23.60;44.60;;;;;;348154;28;1775;-57
2023/10/09 00:33:45;;;;;;;14.27;10.30;;;23.50;44.60;;;;;;348161;28;1475;-56
2023/10/09 00:34:01;;;;;;;15.00;10.10;;;23.60;44.60;;;;;;348255;28;794;-56
2023/10/09 00:34:18;;;;;;;16.08;10.82;;;23.60;44.60;;;;;;348149;28;1569;-56
2023/10/09 00:34:29;;;;;;;17.00;11.82;;;23.60;44.50;;;;;;348151;28;1130;-57
2023/10/09 00:34:40;;;;;;;19.10;11.95;;;23.60;44.30;;;;;;348193;28;1031;-56
2023/10/09 00:34:51;;;;;;;20.20;12.00;;;23.60;44.30;;;;;;348200;28;1098;-56
2023/10/09 00:35:35;;;;;;;21.50;11.98;;;23.60;44.20;;;;;;348254;28;971;-56
2023/10/09 00:35:57;;;;;;;14.68;10.40;;;23.60;44.20;;;;;;348250;28;746;-57
2023/10/09 00:36:09;;;;;;;14.05;10.23;;;23.60;44.40;;;;;;348181;28;934;-56
2023/10/09 00:36:27;;;;;;;14.02;9.73;;;23.60;44.40;;;;;;348194;28;1445;-57
2023/10/09 00:36:50;;;;;;;13.40;8.68;;;23.60;44.40;;;;;;348241;28;1122;-56
2023/10/09 00:37:04;;;;;;;15.77;8.52;;;23.60;44.30;;;;;;348221;28;1048;-56
2023/10/09 00:37:24;;;;;;;16.73;8.55;;;23.60;44.20;;;;;;348243;28;1059;-56
2023/10/09 00:37:35;;;;;;;14.82;8.27;;;23.60;44.10;;;;;;348229;28;852;-56
2023/10/09 00:37:46;;;;;;;14.15;8.25;;;23.60;44.00;;;;;;348225;28;1095;-57
2023/10/09 00:38:01;;;;;;;13.90;8.10;;;23.60;44.00;;;;;;348244;28;869;-57
2023/10/09 00:38:33;;;;;;;14.30;7.97;;;23.60;44.00;;;;;;348230;28;991;-56
2023/10/09 00:38:51;;;;;;;11.77;7.80;;;23.60;44.00;;;;;;348187;28;996;-55
2023/10/09 00:39:11;;;;;;;11.57;8.02;;;23.60;44.10;;;;;;348134;28;995;-56
2023/10/09 00:39:40;;;;;;;11.18;7.68;;;23.60;44.00;;;;;;348233;28;1059;-56
2023/10/09 00:39:58;;;;;;;15.18;7.68;;;23.60;43.90;;;;;;348205;28;1243;-56
2023/10/09 00:40:20;;;;;;;17.13;8.23;;;23.60;43.90;;;;;;348250;28;1067;-56
2023/10/09 00:40:33;;;;;;;14.57;8.10;;;23.60;43.80;;;;;;348128;28;1095;-56
2023/10/09 00:40:52;;;;;;;12.23;7.97;;;23.60;43.90;;;;;;348145;28;1434;-56
2023/10/09 00:41:19;;;;;;;12.52;9.15;;;23.60;43.90;;;;;;348237;28;1000;-56
2023/10/09 00:41:35;;;;;;;13.88;10.05;;;23.60;43.90;;;;;;348239;28;841;-56
2023/10/09 00:41:45;;;;;;;14.23;10.20;;;23.60;44.00;;;;;;348126;28;1629;-56
2023/10/09 00:41:58;;;;;;;14.65;9.63;;;23.60;44.00;;;;;;348293;28;1036;-56
2023/10/09 00:42:14;;;;;;;16.80;9.40;;;23.60;44.00;;;;;;348206;28;1013;-56
2023/10/09 00:42:29;;;;;;;16.15;9.65;;;23.60;44.00;;;;;;348216;28;936;-57
2023/10/09 00:42:40;;;;;;;14.90;9.27;;;23.60;44.00;;;;;;348232;28;1073;-57
2023/10/09 00:42:55;;;;;;;16.30;8.90;;;23.60;44.00;;;;;;348184;28;988;-56
2023/10/09 00:43:13;;;;;;;14.88;8.50;;;23.60;44.00;;;;;;348194;28;1379;-57
2023/10/09 00:43:28;;;;;;;12.63;8.48;;;23.60;44.00;;;;;;348213;28;977;-56
2023/10/09 00:43:43;;;;;;;12.13;8.43;;;23.60;44.00;;;;;;348228;28;2010;-57
2023/10/09 00:43:53;;;;;;;12.88;8.65;;;23.60;44.00;;;;;;348259;28;908;-56
2023/10/09 00:44:07;;;;;;;13.47;8.40;;;23.60;44.00;;;;;;348202;28;1169;-55
2023/10/09 00:44:18;;;;;;;13.60;8.13;;;23.60;44.00;;;;;;348176;28;958;-57
2023/10/09 00:44:38;;;;;;;13.15;7.50;;;23.60;44.00;;;;;;348209;28;1793;-56
2023/10/09 00:44:49;;;;;;;14.00;7.63;;;23.60;44.00;;;;;;348245;28;951;-56
2023/10/09 00:45:04;;;;;;;14.63;8.02;;;23.60;44.10;;;;;;348093;28;1111;-56
2023/10/09 00:45:27;;;;;;;13.45;7.93;;;23.60;44.10;;;;;;348270;28;1027;-56
2023/10/09 00:45:40;;;;;;;12.95;7.88;;;23.60;44.10;;;;;;348154;28;2022;-56
2023/10/09 00:45:51;;;;;;;11.70;7.80;;;23.60;44.10;;;;;;348127;28;1130;-56
2023/10/09 00:46:03;;;;;;;13.18;7.85;;;23.60;44.10;;;;;;348280;28;1884;-56
2023/10/09 00:46:34;;;;;;;11.77;8.15;;;23.60;44.00;;;;;;348119;28;1054;-56
2023/10/09 00:46:47;;;;;;;11.73;7.93;;;23.60;43.90;;;;;;348285;28;988;-57
2023/10/09 00:47:07;;;;;;;13.50;8.35;;;23.60;43.80;;;;;;348276;28;1951;-56
2023/10/09 00:47:21;;;;;;;14.00;8.98;;;23.60;43.80;;;;;;348151;28;1043;-56
2023/10/09 00:47:35;;;;;;;13.70;8.93;;;23.60;43.80;;;;;;348224;28;784;-56
2023/10/09 00:47:47;;;;;;;12.95;8.60;;;23.60;43.80;;;;;;348259;28;1074;-57
2023/10/09 00:48:01;;;;;;;12.25;8.15;;;23.50;43.80;;;;;;348234;28;1023;-56
2023/10/09 00:48:22;;;;;;;12.35;8.20;;;23.60;43.80;;;;;;348115;28;1038;-56
2023/10/09 00:48:39;;;;;;;14.45;8.65;;;23.60;43.80;;;;;;348144;28;920;-56
2023/10/09 00:48:57;;;;;;;17.15;8.55;;;23.50;43.70;;;;;;348303;28;714;-57
2023/10/09 00:49:10;;;;;;;14.57;8.25;;;23.60;43.70;;;;;;348262;28;1035;-56
2023/10/09 00:49:22;;;;;;;13.60;7.97;;;23.60;43.70;;;;;;348029;28;1122;-57
2023/10/09 00:49:33;;;;;;;13.63;8.02;;;23.50;43.70;;;;;;348219;28;983;-56
2023/10/09 00:49:44;;;;;;;13.63;8.27;;;23.50;43.70;;;;;;348203;28;1024;-57
2023/10/09 00:50:00;;;;;;;15.07;8.87;;;23.50;43.60;;;;;;348179;28;1343;-57
2023/10/09 00:50:35;;;;;;;13.23;7.88;;;23.50;43.60;;;;;;348152;28;1201;-57
2023/10/09 00:50:52;;;;;;;12.35;7.82;;;23.50;43.50;;;;;;348201;28;1083;-57
2023/10/09 00:51:16;;;;;;;10.32;7.50;;;23.50;43.50;;;;;;348214;28;975;-55
2023/10/09 00:51:29;;;;;;;10.68;7.53;;;23.50;43.50;;;;;;348205;28;934;-57
2023/10/09 00:51:56;;;;;;;11.80;7.50;;;23.50;43.60;;;;;;348158;28;1142;-57
2023/10/09 00:52:17;;;;;;;11.48;7.70;;;23.50;43.60;;;;;;348129;28;1083;-57
2023/10/09 00:53:11;;;;;;;12.10;7.60;;;23.50;43.60;;;;;;348174;28;1259;-58
2023/10/09 00:53:12;;;;;;;12.00;7.68;;;23.50;43.70;;;;;;346058;28;1213;-56
2023/10/09 00:53:30;;;;;;;14.15;8.02;;;23.50;43.70;;;;;;348284;28;1090;-54
2023/10/09 00:53:57;;;;;;;14.60;8.45;;;23.50;43.70;;;;;;348166;28;1441;-55
2023/10/09 00:54:19;;;;;;;13.48;8.10;;;23.50;43.70;;;;;;348167;28;1130;-56
2023/10/09 00:54:40;;;;;;;13.50;7.30;;;23.40;43.80;;;;;;348110;28;992;-56
2023/10/09 00:54:51;;;;;;;14.27;7.78;;;23.50;44.00;;;;;;348162;28;1090;-56
2023/10/09 00:55:20;;;;;;;13.90;8.10;;;23.50;44.10;;;;;;348283;28;1030;-56
2023/10/09 00:55:45;;;;;;;13.73;8.10;;;23.50;44.10;;;;;;348168;28;1138;-56
2023/10/09 00:55:57;;;;;;;12.90;8.10;;;23.50;44.20;;;;;;348228;28;1193;-56
2023/10/09 00:56:19;;;;;;;12.55;8.23;;;23.40;44.20;;;;;;348267;28;1230;-55
2023/10/09 00:56:38;;;;;;;12.15;8.02;;;23.40;44.20;;;;;;348229;28;1318;-59
2023/10/09 00:56:58;;;;;;;15.05;8.35;;;23.40;44.30;;;;;;348188;28;1011;-56
2023/10/09 00:57:13;;;;;;;14.38;8.15;;;23.40;44.40;;;;;;348125;28;2045;-56
2023/10/09 00:57:24;;;;;;;12.95;7.68;;;23.40;44.50;;;;;;348266;28;938;-56
2023/10/09 00:57:37;;;;;;;14.32;7.85;;;23.40;44.70;;;;;;348172;28;1208;-56
2023/10/09 00:57:57;;;;;;;15.88;7.90;;;23.40;44.80;;;;;;348251;28;1106;-56
2023/10/09 00:58:14;;;;;;;13.52;8.30;;;23.40;44.90;;;;;;348269;28;944;-56
2023/10/09 00:58:27;;;;;;;13.35;8.02;;;23.40;45.00;;;;;;348111;28;1965;-56
2023/10/09 00:58:37;;;;;;;12.23;7.30;;;23.40;45.10;;;;;;348138;28;1699;-56
2023/10/09 00:58:55;;;;;;;11.68;7.22;;;23.30;45.20;;;;;;348196;28;1762;-56
2023/10/09 00:59:22;;;;;;;13.52;7.07;;;23.40;45.20;;;;;;348239;28;1997;-56
2023/10/09 00:59:34;;;;;;;11.52;6.97;;;23.40;45.20;;;;;;348087;28;1039;-55
2023/10/09 00:59:49;;;;;;;9.65;6.68;;;23.40;45.30;;;;;;348178;28;1118;-56
2023/10/09 01:00:00;;;;;;;10.95;6.90;;;23.30;45.30;;;;;;348214;28;1066;-56
2023/10/09 01:00:26;;;;;;;14.48;7.72;;;23.40;45.30;;;;;;348261;28;912;-55
2023/10/09 01:00:45;;;;;;;15.10;7.55;;;23.30;45.30;;;;;;348215;28;865;-57
2023/10/09 01:00:59;;;;;;;12.63;7.03;;;23.30;45.40;;;;;;348153;28;1441;-55
2023/10/09 01:01:15;;;;;;;12.30;6.72;;;23.30;45.40;;;;;;348174;28;893;-56
2023/10/09 01:01:34;;;;;;;12.27;6.75;;;23.30;45.40;;;;;;348152;28;1205;-56
2023/10/09 01:02:04;;;;;;;14.40;6.85;;;23.30;45.50;;;;;;348197;28;1989;-56
2023/10/09 01:02:19;;;;;;;10.38;6.30;;;23.30;45.50;;;;;;348181;28;1259;-57
2023/10/09 01:02:35;;;;;;;9.82;6.35;;;23.20;45.50;;;;;;348233;28;1078;-56
2023/10/09 01:02:46;;;;;;;11.07;6.30;;;23.20;45.50;;;;;;348209;28;1114;-55
2023/10/09 01:03:33;;;;;;;10.15;6.70;;;23.20;45.40;;;;;;348020;28;2665;-57
2023/10/09 01:03:45;;;;;;;9.80;6.50;;;23.20;45.40;;;;;;348230;28;1000;-57
2023/10/09 01:03:56;;;;;;;9.32;6.45;;;23.20;45.40;;;;;;348190;28;1055;-56
2023/10/09 01:04:10;;;;;;;10.15;6.25;;;23.20;45.40;;;;;;348220;28;1055;-56
2023/10/09 01:04:22;;;;;;;9.70;5.90;;;23.20;45.40;;;;;;348144;28;1054;-57
2023/10/09 01:04:37;;;;;;;8.88;5.78;;;23.20;45.30;;;;;;348235;28;840;-56
2023/10/09 01:04:48;;;;;;;11.38;6.22;;;23.20;45.40;;;;;;348181;28;930;-56
2023/10/09 01:04:59;;;;;;;11.07;6.22;;;23.20;45.30;;;;;;348201;28;995;-56
2023/10/09 01:05:18;;;;;;;12.32;6.60;;;23.20;45.30;;;;;;348212;28;984;-56
2023/10/09 01:05:29;;;;;;;11.38;6.50;;;23.20;45.30;;;;;;348199;28;902;-56
2023/10/09 01:06:21;;;;;;;12.95;6.07;;;23.20;45.30;;;;;;345163;28;1167;-56
2023/10/09 01:06:33;;;;;;;11.85;6.38;;;23.20;45.30;;;;;;345283;28;1127;-56
2023/10/09 01:06:47;;;;;;;9.88;6.40;;;23.20;45.40;;;;;;345189;28;1276;-55
2023/10/09 01:07:44;;;;;;;10.55;6.30;;;23.10;45.30;;;;;;343873;28;996;-56
2023/10/09 01:07:58;;;;;;;11.35;6.10;;;23.10;45.30;;;;;;343861;28;2105;-56
2023/10/09 01:08:24;;;;;;;12.55;5.97;;;23.10;45.30;;;;;;343960;28;1040;-56
2023/10/09 01:09:07;;;;;;;10.57;6.15;;;23.10;45.40;;;;;;344475;28;1156;-56
2023/10/09 01:09:19;;;;;;;12.02;6.00;;;23.10;45.50;;;;;;348147;28;1124;-56
2023/10/09 01:09:37;;;;;;;11.85;6.35;;;23.10;45.70;;;;;;348274;28;944;-56
2023/10/09 01:09:51;;;;;;;10.80;6.72;;;23.10;45.70;;;;;;348242;28;892;-56
2023/10/09 01:10:22;;;;;;;10.65;6.47;;;23.10;45.80;;;;;;348223;28;933;-57
2023/10/09 01:10:50;;;;;;;9.60;6.10;;;23.10;45.70;;;;;;347970;28;1501;-57
2023/10/09 01:11:10;;;;;;;11.75;6.05;;;23.10;45.70;;;;;;348432;28;1015;-58
2023/10/09 01:11:23;;;;;;;11.90;6.40;;;23.00;45.70;;;;;;348501;28;1079;-58
2023/10/09 01:11:34;;;;;;;10.88;6.07;;;23.10;45.60;;;;;;348497;28;996;-56
2023/10/09 01:12:03;;;;;;;9.70;5.57;;;23.00;45.50;;;;;;348522;28;1094;-55
2023/10/09 01:12:17;;;;;;;12.35;5.65;;;23.10;45.30;;;;;;348504;28;1418;-56
2023/10/09 01:12:28;;;;;;;9.90;5.53;;;23.00;45.10;;;;;;348412;28;1210;-57
2023/10/09 01:12:44;;;;;;;10.75;5.45;;;23.00;45.10;;;;;;348455;28;1054;-56
2023/10/09 01:12:55;;;;;;;10.90;5.80;;;23.10;45.00;;;;;;348477;28;1011;-57
2023/10/09 01:13:09;;;;;;;9.65;5.85;;;23.00;45.00;;;;;;348506;28;1035;-55
2023/10/09 01:13:20;;;;;;;8.05;5.65;;;23.00;45.00;;;;;;348455;28;980;-57
2023/10/09 01:14:11;;;;;;;9.65;5.57;;;23.00;44.70;;;;;;348411;28;1012;-57
2023/10/09 01:14:22;;;;;;;9.32;5.32;;;23.00;44.60;;;;;;348370;28;1201;-57
2023/10/09 01:14:36;;;;;;;9.98;5.40;;;23.00;44.50;;;;;;348463;28;932;-57
2023/10/09 01:14:54;;;;;;;11.32;5.40;;;23.00;44.40;;;;;;348513;28;1054;-56
2023/10/09 01:15:07;;;;;;;10.73;5.40;;;22.90;44.50;;;;;;348402;28;1138;-57
2023/10/09 01:15:35;;;;;;;9.85;5.65;;;22.90;44.40;;;;;;348425;28;1046;-56
2023/10/09 01:15:46;;;;;;;10.80;6.03;;;22.90;44.40;;;;;;348421;28;1067;-56
2023/10/09 01:16:00;;;;;;;9.05;5.88;;;22.90;44.40;;;;;;348508;28;1043;-57
2023/10/09 01:16:15;;;;;;;8.57;5.57;;;22.90;44.40;;;;;;348396;28;1070;-57
2023/10/09 01:16:31;;;;;;;9.25;5.20;;;22.90;44.40;;;;;;348490;28;834;-56
2023/10/09 01:16:42;;;;;;;10.50;5.35;;;22.90;44.40;;;;;;348517;28;999;-56
2023/10/09 01:16:54;;;;;;;10.85;5.50;;;22.90;44.40;;;;;;348486;28;1649;-57
2023/10/09 01:17:08;;;;;;;9.02;5.50;;;22.90;44.40;;;;;;348409;28;984;-57
2023/10/09 01:17:35;;;;;;;9.20;5.28;;;22.90;44.40;;;;;;348461;28;967;-57
2023/10/09 01:17:45;;;;;;;9.30;5.60;;;22.90;44.40;;;;;;348472;28;976;-56
2023/10/09 01:17:58;;;;;;;8.55;5.47;;;22.80;44.40;;;;;;348412;28;1181;-57
2023/10/09 01:18:09;;;;;;;9.60;5.20;;;22.80;44.40;;;;;;348469;28;1031;-57
2023/10/09 01:18:20;;;;;;;9.52;5.30;;;22.80;44.30;;;;;;348396;28;1015;-57
2023/10/09 01:18:36;;;;;;;10.47;5.50;;;22.80;44.40;;;;;;348513;28;1090;-57
2023/10/09 01:18:52;;;;;;;9.93;5.40;;;22.80;44.30;;;;;;348413;28;1048;-57
2023/10/09 01:19:13;;;;;;;9.27;5.10;;;22.80;44.30;;;;;;348363;28;1419;-54
2023/10/09 01:19:23;;;;;;;11.85;5.32;;;22.80;44.30;;;;;;348421;28;1306;-57
2023/10/09 01:19:35;;;;;;;11.52;5.53;;;22.80;44.30;;;;;;348512;28;1035;-58
2023/10/09 01:19:47;;;;;;;10.57;5.60;;;22.70;44.30;;;;;;348341;28;1094;-57
2023/10/09 01:20:03;;;;;;;8.60;5.43;;;22.70;44.30;;;;;;348496;28;1040;-56
2023/10/09 01:20:16;;;;;;;9.63;5.00;;;22.70;44.30;;;;;;348334;28;1464;-57
2023/10/09 01:20:31;;;;;;;9.48;4.90;;;22.70;44.30;;;;;;348449;28;959;-56
2023/10/09 01:20:45;;;;;;;10.50;5.20;;;22.70;44.30;;;;;;348415;28;888;-57
2023/10/09 01:20:55;;;;;;;11.18;5.32;;;22.70;44.40;;;;;;348485;28;1043;-56
2023/10/09 01:21:06;;;;;;;10.43;5.45;;;22.70;44.40;;;;;;348439;28;1016;-57
2023/10/09 01:21:23;;;;;;;11.27;5.75;;;22.70;44.40;;;;;;348453;28;1067;-56
2023/10/09 01:21:34;;;;;;;12.13;5.95;;;22.70;44.40;;;;;;348453;28;1122;-56
2023/10/09 01:21:45;;;;;;;9.88;5.88;;;22.70;44.50;;;;;;348498;28;1035;-56
2023/10/09 01:22:02;;;;;;;9.55;5.75;;;22.70;44.50;;;;;;348412;28;1070;-56
2023/10/09 01:22:14;;;;;;;10.10;5.72;;;22.70;44.50;;;;;;348503;28;1118;-57
2023/10/09 01:22:25;;;;;;;8.70;5.75;;;22.70;44.60;;;;;;348409;28;1063;-57
2023/10/09 01:22:36;;;;;;;9.40;5.30;;;22.70;44.60;;;;;;348482;28;1875;-57
2023/10/09 01:22:49;;;;;;;10.65;5.32;;;22.70;44.60;;;;;;348468;28;884;-56
2023/10/09 01:23:03;;;;;;;10.77;5.20;;;22.70;44.70;;;;;;348367;28;1111;-57
2023/10/09 01:23:13;;;;;;;9.93;5.63;;;22.70;44.70;;;;;;348509;28;1007;-56
2023/10/09 01:23:24;;;;;;;12.43;5.90;;;22.60;44.70;;;;;;348321;28;1020;-56
2023/10/09 01:23:42;;;;;;;11.60;5.73;;;22.70;44.70;;;;;;348262;28;1675;-57
2023/10/09 01:24:03;;;;;;;9.30;5.47;;;22.60;44.80;;;;;;348210;28;1139;-57
2023/10/09 01:24:15;;;;;;;10.38;5.85;;;22.60;44.80;;;;;;348307;28;948;-57
2023/10/09 01:24:27;;;;;;;10.98;5.75;;;22.60;44.80;;;;;;348302;28;906;-56
2023/10/09 01:24:39;;;;;;;11.57;5.75;;;22.60;44.90;;;;;;348369;28;940;-56
2023/10/09 01:24:51;;;;;;;13.73;5.93;;;22.60;44.90;;;;;;348271;28;1146;-57
2023/10/09 01:25:05;;;;;;;12.90;5.78;;;22.60;44.90;;;;;;348339;28;1055;-57
2023/10/09 01:25:16;;;;;;;12.13;5.80;;;22.60;44.90;;;;;;348289;28;940;-57
2023/10/09 01:25:41;;;;;;;11.57;5.83;;;22.60;44.90;;;;;;348292;28;992;-57
2023/10/09 01:25:52;;;;;;;9.48;5.25;;;22.60;45.00;;;;;;348421;28;1638;-56
2023/10/09 01:26:03;;;;;;;8.43;5.38;;;22.60;45.00;;;;;;348463;28;1055;-57
2023/10/09 01:26:14;;;;;;;7.88;5.45;;;22.60;45.00;;;;;;348496;28;965;-55
2023/10/09 01:26:25;;;;;;;8.60;5.37;;;22.50;45.10;;;;;;348424;28;1060;-56
2023/10/09 01:26:44;;;;;;;8.82;5.45;;;22.50;45.10;;;;;;348480;28;1106;-56
2023/10/09 01:26:59;;;;;;;9.38;5.40;;;22.50;45.20;;;;;;348415;28;1063;-56
2023/10/09 01:27:14;;;;;;;8.75;5.35;;;22.50;45.20;;;;;;348478;28;838;-56
2023/10/09 01:27:32;;;;;;;9.95;6.03;;;22.50;45.20;;;;;;348384;28;1930;-56